createdAt,value
2019-02-24T00:02:12.976Z,54.00
2019-02-24T00:04:43.945Z,53.00
2019-02-24T00:07:14.743Z,54.29
2019-02-24T00:09:45.638Z,53.87
2019-02-24T00:12:16.634Z,54.54
2019-02-24T00:14:47.815Z,55.04
2019-02-24T00:17:18.608Z,52.81
2019-02-24T00:19:49.478Z,51.84
2019-02-24T00:22:20.512Z,47.58
2019-02-24T00:24:51.328Z,52.56
2019-02-24T00:27:22.206Z,52.88
2019-02-24T00:29:53.092Z,53.37
2019-02-24T00:32:23.992Z,53.43
2019-02-24T00:34:56.838Z,54.34
2019-02-24T00:37:28.618Z,54.08
2019-02-24T00:39:59.422Z,54.03
2019-02-24T00:42:30.706Z,53.63
2019-02-24T00:45:02.021Z,52.45
2019-02-24T00:47:33.186Z,53.04
2019-02-24T00:50:04.099Z,51.75
2019-02-24T00:52:35.525Z,48.98
2019-02-24T00:55:06.799Z,49.87
2019-02-24T00:57:37.662Z,51.04
2019-02-24T01:00:09.290Z,51.08
2019-02-24T01:02:41.702Z,53.09
2019-02-24T01:05:12.489Z,53.17
2019-02-24T01:07:43.529Z,53.34
2019-02-24T01:10:14.454Z,52.96
2019-02-24T01:12:45.258Z,55.13
2019-02-24T01:15:16.207Z,54.38
2019-02-24T01:17:47.033Z,54.92
2019-02-24T01:20:17.929Z,55.86
2019-02-24T01:22:48.707Z,56.09
2019-02-24T01:25:19.491Z,55.67
2019-02-24T01:27:50.359Z,56.14
2019-02-24T01:30:21.299Z,55.88
2019-02-24T01:32:52.202Z,55.44
2019-02-24T01:35:23.037Z,56.40
2019-02-24T01:37:54.225Z,55.27
2019-02-24T01:40:25.113Z,56.57
2019-02-24T01:42:55.938Z,56.00
2019-02-24T01:45:26.933Z,56.86
2019-02-24T01:47:57.735Z,56.90
2019-02-24T01:50:28.569Z,58.21
2019-02-24T01:52:59.450Z,57.10
2019-02-24T01:55:30.232Z,57.20
2019-02-24T01:58:01.162Z,57.23
2019-02-24T02:00:32.345Z,57.90
2019-02-24T02:03:03.168Z,57.24
2019-02-24T02:05:34.106Z,58.72
2019-02-24T02:08:05.859Z,61.02
2019-02-24T02:10:36.843Z,61.77
2019-02-24T02:13:07.960Z,62.11
2019-02-24T02:15:38.891Z,62.12
2019-02-24T02:18:10.659Z,62.27
2019-02-24T02:20:41.794Z,62.75
2019-02-24T02:23:12.619Z,63.14
2019-02-24T02:25:43.619Z,62.84
2019-02-24T02:28:14.494Z,63.70
2019-02-24T02:30:45.544Z,64.33
2019-02-24T02:33:16.361Z,64.89
2019-02-24T02:35:47.309Z,64.92
2019-02-24T02:38:18.995Z,65.70
2019-02-24T02:40:49.787Z,65.47
2019-02-24T02:43:20.730Z,65.75
2019-02-24T02:45:51.576Z,65.85
2019-02-24T02:48:22.441Z,65.83
2019-02-24T02:50:53.453Z,66.11
2019-02-24T02:53:24.335Z,66.23
2019-02-24T02:55:55.231Z,66.87
2019-02-24T02:58:26.211Z,67.08
2019-02-24T03:00:57.096Z,67.05
2019-02-24T03:03:28.067Z,67.52
2019-02-24T03:06:17.814Z,68.03
2019-02-24T03:08:50.110Z,68.03
2019-02-24T03:11:21.017Z,68.73
2019-02-24T03:13:52.025Z,68.23
2019-02-24T03:16:26.115Z,68.05
2019-02-24T03:18:56.954Z,67.82
2019-02-24T03:21:27.872Z,67.88
2019-02-24T03:23:58.749Z,67.48
2019-02-24T03:26:29.521Z,67.41
2019-02-24T03:29:04.185Z,67.22
2019-02-24T03:31:34.184Z,67.10
2019-02-24T03:34:05.048Z,67.58
2019-02-24T03:36:35.931Z,67.78
2019-02-24T03:39:07.460Z,67.65
2019-02-24T03:41:38.324Z,67.34
2019-02-24T03:44:09.215Z,67.19
2019-02-24T03:46:39.989Z,66.48
2019-02-24T03:49:11.279Z,66.35
2019-02-24T03:51:42.196Z,65.82
2019-02-24T03:54:13.262Z,65.31
2019-02-24T03:56:44.155Z,66.96
2019-02-24T03:59:15.497Z,67.47
2019-02-24T04:01:46.462Z,68.28
2019-02-24T04:04:17.534Z,68.21
2019-02-24T04:06:48.337Z,68.45
2019-02-24T04:09:19.951Z,67.93
2019-02-24T04:11:50.843Z,67.25
2019-02-24T04:14:22.013Z,67.35
2019-02-24T04:16:52.917Z,67.21
2019-02-24T04:19:23.801Z,67.74
2019-02-24T04:21:54.675Z,68.36
2019-02-24T04:24:25.569Z,67.37
2019-02-24T04:26:56.350Z,67.74
2019-02-24T04:29:27.289Z,67.94
2019-02-24T04:31:58.128Z,68.13
2019-02-24T04:34:29.105Z,68.36
2019-02-24T04:37:00.016Z,69.09
2019-02-24T04:39:30.904Z,67.68
2019-02-24T04:42:01.478Z,67.91
2019-02-24T04:44:32.391Z,67.89
2019-02-24T04:47:03.136Z,68.36
2019-02-24T04:49:34.038Z,68.88
2019-02-24T04:52:04.827Z,67.51
2019-02-24T04:54:35.975Z,67.72
2019-02-24T04:57:06.911Z,67.46
2019-02-24T04:59:37.806Z,67.84
2019-02-24T05:02:08.586Z,68.10
2019-02-24T05:04:39.636Z,67.99
2019-02-24T05:07:10.450Z,67.70
2019-02-24T05:09:41.594Z,68.36
2019-02-24T05:12:12.443Z,68.44
2019-02-24T05:14:43.826Z,67.61
2019-02-24T05:17:14.539Z,67.52
2019-02-24T05:19:45.390Z,66.82
2019-02-24T05:22:16.183Z,67.53
2019-02-24T05:24:47.155Z,66.89
2019-02-24T05:27:18.065Z,68.20
2019-02-24T05:29:49.064Z,68.43
2019-02-24T05:32:19.851Z,69.04
2019-02-24T05:34:50.535Z,68.64
2019-02-24T05:37:21.466Z,69.31
2019-02-24T05:39:52.304Z,69.02
2019-02-24T05:42:25.195Z,69.39
2019-02-24T05:44:56.027Z,69.02
2019-02-24T05:47:26.914Z,69.04
2019-02-24T05:49:57.793Z,68.37
2019-02-24T05:52:28.735Z,68.43
2019-02-24T05:54:59.934Z,67.83
2019-02-24T05:57:30.874Z,67.11
2019-02-24T06:00:02.322Z,67.50
2019-02-24T06:02:33.774Z,67.11
2019-02-24T06:05:04.878Z,66.40
2019-02-24T06:07:35.639Z,66.40
2019-02-24T06:10:06.722Z,65.32
2019-02-24T06:12:37.634Z,65.89
2019-02-24T06:15:08.717Z,66.53
2019-02-24T06:17:39.495Z,66.68
2019-02-24T06:20:10.403Z,67.12
2019-02-24T06:22:41.171Z,67.60
2019-02-24T06:25:12.165Z,67.77
2019-02-24T06:27:42.956Z,68.16
2019-02-24T06:30:14.066Z,68.17
2019-02-24T06:32:44.936Z,68.13
2019-02-24T06:35:16.916Z,68.81
2019-02-24T06:37:47.733Z,68.85
2019-02-24T06:40:18.821Z,68.78
2019-02-24T06:42:50.689Z,69.08
2019-02-24T06:45:21.473Z,69.25
2019-02-24T06:47:52.364Z,69.03
2019-02-24T06:50:23.240Z,68.15
2019-02-24T06:52:54.025Z,68.90
2019-02-24T06:55:24.702Z,68.05
2019-02-24T06:57:55.536Z,67.86
2019-02-24T07:00:26.923Z,67.77
2019-02-24T07:02:57.838Z,67.06
2019-02-24T07:05:28.775Z,66.54
2019-02-24T07:07:59.555Z,66.10
2019-02-24T07:10:30.251Z,66.60
2019-02-24T07:13:01.186Z,65.08
2019-02-24T07:15:32.007Z,65.36
2019-02-24T07:18:02.997Z,64.61
2019-02-24T07:20:33.926Z,63.09
2019-02-24T07:23:04.824Z,62.27
2019-02-24T07:25:35.863Z,58.96
2019-02-24T07:28:06.698Z,61.37
2019-02-24T07:30:37.788Z,60.48
2019-02-24T07:33:08.682Z,60.36
2019-02-24T07:35:39.564Z,59.31
2019-02-24T07:38:10.482Z,59.68
2019-02-24T07:40:41.642Z,57.16
2019-02-24T07:43:12.551Z,57.77
2019-02-24T07:45:43.436Z,54.79
2019-02-24T07:48:14.310Z,55.79
2019-02-24T07:50:45.221Z,55.00
2019-02-24T07:53:15.979Z,53.03
2019-02-24T07:55:46.869Z,55.91
2019-02-24T07:58:17.666Z,55.82
2019-02-24T08:00:48.638Z,56.69
2019-02-24T08:03:19.455Z,52.68
2019-02-24T08:05:50.314Z,52.07
2019-02-24T08:08:21.196Z,52.39
2019-02-24T08:10:52.431Z,50.82
2019-02-24T08:13:23.290Z,51.09
2019-02-24T08:15:54.382Z,50.55
2019-02-24T08:18:25.283Z,49.29
2019-02-24T08:20:56.211Z,50.22
2019-02-24T08:23:27.051Z,49.10
2019-02-24T08:25:57.951Z,48.03
2019-02-24T08:28:28.825Z,48.91
2019-02-24T08:31:00.007Z,49.00
2019-02-24T08:33:30.789Z,46.91
2019-02-24T08:36:02.418Z,48.12
2019-02-24T08:38:33.193Z,46.33
2019-02-24T08:41:04.023Z,47.96
2019-02-24T08:43:34.896Z,47.50
2019-02-24T08:46:05.650Z,48.26
2019-02-24T08:48:36.611Z,46.05
2019-02-24T08:51:07.505Z,47.06
2019-02-24T08:53:38.421Z,46.17
2019-02-24T08:56:09.679Z,46.61
2019-02-24T08:58:40.485Z,45.44
2019-02-24T09:01:11.369Z,45.63
2019-02-24T09:03:43.187Z,47.74
2019-02-24T09:06:14.085Z,47.11
2019-02-24T09:08:44.989Z,48.65
2019-02-24T09:11:15.793Z,45.73
2019-02-24T09:13:46.786Z,47.46
2019-02-24T09:16:17.675Z,46.63
2019-02-24T09:18:48.527Z,47.68
2019-02-24T09:21:19.502Z,45.57
2019-02-24T09:23:50.719Z,43.59
2019-02-24T09:26:21.617Z,47.11
2019-02-24T09:28:52.721Z,46.45
2019-02-24T09:31:23.507Z,44.34
2019-02-24T09:33:54.453Z,45.78
2019-02-24T09:36:26.369Z,42.27
2019-02-24T09:38:57.143Z,42.44
2019-02-24T09:41:28.128Z,42.08
2019-02-24T09:43:59.913Z,43.13
2019-02-24T09:46:30.884Z,41.87
2019-02-24T09:49:02.135Z,41.92
2019-02-24T09:51:32.956Z,42.86
2019-02-24T09:54:03.843Z,42.95
2019-02-24T09:56:34.749Z,43.18
2019-02-24T09:59:06.754Z,43.84
2019-02-24T10:01:37.746Z,41.98
2019-02-24T10:04:08.758Z,43.19
2019-02-24T10:06:39.901Z,44.01
2019-02-24T10:09:10.826Z,43.11
2019-02-24T10:11:41.418Z,43.52
2019-02-24T10:14:12.245Z,41.68
2019-02-24T10:16:43.342Z,42.74
2019-02-24T10:19:14.310Z,43.75
2019-02-24T10:21:45.290Z,40.81
2019-02-24T10:24:16.440Z,40.21
2019-02-24T10:26:47.410Z,40.06
2019-02-24T10:29:18.482Z,40.23
2019-02-24T10:32:38.265Z,40.51
2019-02-24T10:35:10.945Z,39.62
2019-02-24T10:37:41.894Z,39.09
2019-02-24T10:40:13.881Z,39.03
2019-02-24T10:42:45.815Z,38.50
2019-02-24T10:45:16.841Z,39.54
2019-02-24T10:47:47.893Z,39.60
2019-02-24T10:50:18.782Z,37.78
2019-02-24T10:52:49.576Z,38.35
2019-02-24T10:55:20.559Z,36.27
2019-02-24T10:57:51.351Z,38.27
2019-02-24T11:00:22.741Z,37.63
2019-02-24T11:02:53.513Z,36.95
2019-02-24T11:05:24.420Z,35.68
2019-02-24T11:07:55.302Z,36.88
2019-02-24T11:10:26.338Z,38.04
2019-02-24T11:12:57.166Z,36.98
2019-02-24T11:15:28.134Z,37.97
2019-02-24T11:17:59.014Z,38.41
2019-02-24T11:20:29.904Z,37.64
2019-02-24T11:23:00.874Z,38.55
2019-02-24T11:25:31.758Z,37.06
2019-02-24T11:28:02.884Z,38.10
2019-02-24T11:30:33.921Z,38.39
2019-02-24T11:33:04.945Z,39.17
2019-02-24T11:35:36.862Z,37.66
2019-02-24T11:38:07.730Z,39.15
2019-02-24T11:40:38.721Z,38.50
2019-02-24T11:43:09.734Z,37.25
2019-02-24T11:45:40.504Z,36.61
2019-02-24T11:48:11.418Z,37.39
2019-02-24T11:50:42.289Z,37.28
2019-02-24T11:53:13.270Z,37.29
2019-02-24T11:55:44.052Z,35.21
2019-02-24T11:58:14.954Z,37.54
2019-02-24T12:00:45.818Z,36.95
2019-02-24T12:03:17.765Z,36.14
2019-02-24T12:05:48.629Z,35.13
2019-02-24T12:08:21.021Z,35.99
2019-02-24T12:10:51.930Z,36.73
2019-02-24T12:13:22.922Z,35.09
2019-02-24T12:15:54.830Z,34.32
2019-02-24T12:18:26.633Z,34.31
2019-02-24T12:20:57.641Z,33.28
2019-02-24T12:23:28.624Z,34.34
2019-02-24T12:25:59.516Z,33.63
2019-02-24T12:28:30.528Z,33.97
2019-02-24T12:31:02.520Z,34.19
2019-02-24T12:33:33.409Z,33.43
2019-02-24T12:36:04.202Z,34.45
2019-02-24T12:38:35.480Z,32.18
2019-02-24T12:41:06.275Z,33.45
2019-02-24T12:43:38.199Z,33.88
2019-02-24T12:46:08.980Z,33.84
2019-02-24T12:48:40.266Z,34.28
2019-02-24T12:51:11.430Z,32.11
2019-02-24T12:53:42.346Z,34.37
2019-02-24T12:56:14.855Z,32.48
2019-02-24T12:58:46.166Z,34.10
2019-02-24T13:01:17.069Z,31.68
2019-02-24T13:03:48.239Z,32.36
2019-02-24T13:06:20.164Z,33.32
2019-02-24T13:08:51.050Z,32.22
2019-02-24T13:11:22.010Z,31.17
2019-02-24T13:13:52.997Z,33.51
2019-02-24T13:16:23.934Z,31.87
2019-02-24T13:18:55.421Z,34.01
2019-02-24T13:21:49.045Z,33.16
2019-02-24T13:24:25.978Z,30.65
2019-02-24T13:26:56.873Z,32.00
2019-02-24T13:29:27.855Z,31.64
2019-02-24T13:31:58.735Z,31.69
2019-02-24T13:34:30.809Z,30.88
2019-02-24T13:37:01.745Z,31.72
2019-02-24T13:39:32.724Z,33.71
2019-02-24T13:42:03.619Z,30.67
2019-02-24T13:44:34.755Z,33.44
2019-02-24T13:47:05.717Z,31.21
2019-02-24T13:49:36.699Z,31.08
2019-02-24T13:52:07.477Z,32.41
2019-02-24T13:54:38.454Z,32.85
2019-02-24T13:57:09.354Z,31.68
2019-02-24T13:59:40.267Z,31.96
2019-02-24T14:02:11.039Z,31.85
2019-02-24T14:04:41.908Z,31.32
2019-02-24T14:07:12.699Z,31.97
2019-02-24T14:09:43.646Z,31.96
2019-02-24T14:12:14.586Z,31.46
2019-02-24T14:14:49.080Z,31.98
2019-02-24T14:17:17.954Z,32.86
2019-02-24T14:19:49.443Z,33.64
2019-02-24T14:22:20.323Z,32.29
2019-02-24T14:24:51.935Z,32.63
2019-02-24T14:27:22.903Z,32.89
2019-02-24T14:29:53.708Z,31.98
2019-02-24T14:32:32.729Z,32.18
2019-02-24T14:34:57.186Z,34.10
2019-02-24T14:37:27.970Z,33.88
2019-02-24T14:39:58.899Z,32.90
2019-02-24T14:42:29.902Z,30.53
2019-02-24T14:45:00.763Z,30.43
2019-02-24T14:47:31.603Z,31.19
2019-02-24T14:50:02.699Z,30.05
2019-02-24T14:52:33.487Z,30.76
2019-02-24T14:55:04.588Z,29.95
2019-02-24T14:57:35.807Z,31.07
2019-02-24T15:00:07.850Z,31.09
2019-02-24T15:02:42.541Z,30.54
2019-02-24T15:05:11.983Z,30.79
2019-02-24T15:07:44.179Z,30.72
2019-02-24T15:10:15.706Z,30.89
2019-02-24T15:12:46.699Z,30.88
2019-02-24T15:15:18.711Z,31.35
2019-02-24T15:17:49.493Z,31.52
2019-02-24T15:20:20.805Z,31.88
2019-02-24T15:22:51.611Z,32.63
2019-02-24T15:25:22.598Z,32.11
2019-02-24T15:27:53.483Z,32.30
2019-02-24T15:30:29.719Z,31.43
2019-02-24T15:33:00.783Z,30.44
2019-02-24T15:35:31.776Z,30.41
2019-02-24T15:38:02.685Z,30.52
2019-02-24T15:40:33.623Z,30.80
2019-02-24T15:43:04.503Z,30.48
2019-02-24T15:45:35.436Z,30.78
2019-02-24T15:48:06.323Z,30.89
2019-02-24T15:50:37.301Z,31.28
2019-02-24T15:53:08.196Z,32.75
2019-02-24T15:55:39.136Z,32.05
2019-02-24T15:58:10.135Z,32.63
2019-02-24T16:00:41.231Z,31.77
2019-02-24T16:03:13.123Z,31.65
2019-02-24T16:05:43.920Z,34.04
2019-02-24T16:08:14.824Z,33.60
2019-02-24T16:10:45.588Z,33.32
2019-02-24T16:13:17.271Z,33.02
2019-02-24T16:15:48.181Z,33.52
2019-02-24T16:18:19.091Z,33.47
2019-02-24T16:20:50.032Z,32.54
2019-02-24T16:23:20.851Z,33.50
2019-02-24T16:25:51.643Z,33.27
2019-02-24T16:28:22.365Z,35.48
2019-02-24T16:30:53.315Z,37.51
2019-02-24T16:33:24.380Z,36.12
2019-02-24T16:35:55.173Z,40.34
2019-02-24T16:38:26.062Z,40.47
2019-02-24T16:40:57.066Z,41.90
2019-02-24T16:43:27.962Z,43.15
2019-02-24T16:45:58.722Z,42.97
2019-02-24T16:48:29.631Z,44.33
2019-02-24T16:51:00.409Z,44.92
2019-02-24T16:53:31.692Z,45.27
2019-02-24T16:56:02.990Z,45.74
2019-02-24T16:58:33.934Z,45.45
2019-02-24T17:01:05.169Z,46.31
2019-02-24T17:03:36.187Z,46.05
2019-02-24T17:06:07.313Z,46.88
2019-02-24T17:08:38.429Z,47.30
2019-02-24T17:11:09.372Z,46.32
2019-02-24T17:13:40.250Z,46.45
2019-02-24T17:16:11.129Z,46.46
2019-02-24T17:18:42.022Z,46.64
2019-02-24T17:21:12.908Z,46.46
2019-02-24T17:23:49.672Z,46.25
2019-02-24T17:26:16.221Z,47.05
2019-02-24T17:28:47.107Z,46.89
2019-02-24T17:31:17.994Z,47.60
2019-02-24T17:33:48.979Z,48.08
2019-02-24T17:36:19.942Z,48.46
2019-02-24T17:38:50.849Z,48.45
2019-02-24T17:41:21.523Z,48.68
2019-02-24T17:43:52.440Z,49.18
2019-02-24T17:46:23.513Z,49.12
2019-02-24T17:48:54.473Z,48.55
2019-02-24T17:51:25.399Z,48.71
2019-02-24T17:53:56.287Z,49.70
2019-02-24T17:56:27.158Z,49.63
2019-02-24T17:58:58.050Z,50.44
2019-02-24T18:01:28.936Z,50.79
2019-02-24T18:03:59.825Z,50.71
2019-02-24T18:06:30.679Z,51.26
2019-02-24T18:09:01.457Z,51.10
2019-02-24T18:11:33.874Z,51.41
2019-02-24T18:14:04.752Z,51.89
2019-02-24T18:16:35.661Z,51.35
2019-02-24T18:19:06.441Z,51.14
2019-02-24T18:21:37.607Z,51.75
2019-02-24T18:24:08.407Z,51.39
2019-02-24T18:26:39.494Z,52.23
2019-02-24T18:29:10.278Z,52.99
2019-02-24T18:31:41.277Z,52.34
2019-02-24T18:34:12.283Z,52.99
2019-02-24T18:36:43.250Z,54.56
2019-02-24T18:39:14.317Z,54.83
2019-02-24T18:41:46.227Z,55.06
2019-02-24T18:44:17.104Z,55.10
2019-02-24T18:46:47.889Z,55.33
2019-02-24T18:49:18.926Z,55.49
2019-02-24T18:51:49.553Z,55.40
2019-02-24T18:54:20.447Z,55.57
2019-02-24T18:56:51.268Z,56.18
2019-02-24T18:59:22.056Z,56.05
2019-02-24T19:01:53.022Z,55.87
2019-02-24T19:04:23.851Z,56.56
2019-02-24T19:06:54.850Z,56.01
2019-02-24T19:09:25.606Z,56.50
2019-02-24T19:11:56.403Z,56.46
2019-02-24T19:14:27.173Z,55.93
2019-02-24T19:16:58.094Z,56.77
2019-02-24T19:19:28.869Z,56.75
2019-02-24T19:21:59.708Z,57.28
2019-02-24T19:24:30.582Z,57.70
2019-02-24T19:27:01.539Z,57.25
2019-02-24T19:29:32.442Z,56.89
2019-02-24T19:32:03.240Z,56.90
2019-02-24T19:34:34.135Z,57.29
2019-02-24T19:37:04.926Z,56.91
2019-02-24T19:39:35.801Z,57.96
2019-02-24T19:42:06.745Z,56.94
2019-02-24T19:44:37.965Z,58.26
2019-02-24T19:47:08.785Z,59.23
2019-02-24T19:49:39.564Z,59.13
2019-02-24T19:52:10.393Z,58.26
2019-02-24T19:54:41.190Z,58.47
2019-02-24T19:57:12.531Z,59.09
2019-02-24T19:59:43.464Z,58.48
2019-02-24T20:02:14.444Z,59.93
2019-02-24T20:04:46.163Z,60.46
2019-02-24T20:07:16.851Z,60.60
2019-02-24T20:09:47.725Z,60.55
2019-02-24T20:12:18.922Z,60.79
2019-02-24T20:14:49.833Z,60.78
2019-02-24T20:17:20.801Z,60.35
2019-02-24T20:19:51.584Z,61.14
2019-02-24T20:22:22.628Z,60.42
2019-02-24T20:24:53.666Z,59.90
2019-02-24T20:27:24.562Z,60.30
2019-02-24T20:29:55.458Z,61.12
2019-02-24T20:32:26.437Z,61.49
2019-02-24T20:34:57.339Z,62.30
2019-02-24T20:37:28.315Z,62.29
2019-02-24T20:39:59.091Z,61.86
2019-02-24T20:42:29.999Z,61.13
2019-02-24T20:45:00.882Z,61.32
2019-02-24T20:47:32.246Z,61.04
2019-02-24T20:50:03.057Z,62.47
2019-02-24T20:52:33.889Z,62.77
2019-02-24T20:55:04.974Z,62.41
2019-02-24T20:57:35.867Z,63.32
2019-02-24T21:00:11.162Z,62.75
2019-02-24T21:02:42.461Z,63.11
2019-02-24T21:05:13.646Z,62.69
2019-02-24T21:07:44.456Z,63.47
2019-02-24T21:10:15.617Z,63.77
2019-02-24T21:12:46.435Z,63.65
2019-02-24T21:15:17.536Z,64.00
2019-02-24T21:17:48.392Z,64.01
2019-02-24T21:20:21.139Z,64.29
2019-02-24T21:22:52.032Z,64.25
2019-02-24T21:25:22.997Z,63.92
2019-02-24T21:27:54.427Z,63.76
2019-02-24T21:30:26.661Z,63.09
2019-02-24T21:32:57.660Z,63.32
2019-02-24T21:35:28.454Z,63.23
2019-02-24T21:37:59.436Z,63.33
2019-02-24T21:40:30.323Z,63.46
2019-02-24T21:43:01.435Z,63.13
2019-02-24T21:45:32.315Z,63.97
2019-02-24T21:48:03.191Z,63.24
2019-02-24T21:50:34.137Z,63.58
2019-02-24T21:53:05.013Z,63.53
2019-02-24T21:55:36.424Z,63.70
2019-02-24T21:58:07.262Z,64.16
2019-02-24T22:00:38.237Z,64.60
2019-02-24T22:03:09.231Z,64.25
2019-02-24T22:05:40.131Z,64.28
2019-02-24T22:08:11.308Z,65.32
2019-02-24T22:10:42.098Z,65.02
2019-02-24T22:13:13.012Z,64.02
2019-02-24T22:15:43.890Z,63.53
2019-02-24T22:18:14.763Z,63.63
2019-02-24T22:20:45.548Z,63.74
2019-02-24T22:23:17.004Z,63.97
2019-02-24T22:25:47.839Z,63.93
2019-02-24T22:28:19.014Z,64.40
2019-02-24T22:30:49.837Z,64.65
2019-02-24T22:33:22.537Z,64.92
2019-02-24T22:35:53.438Z,64.82
2019-02-24T22:38:24.624Z,65.28
2019-02-24T22:40:55.410Z,65.76
2019-02-24T22:43:26.600Z,65.08
2019-02-24T22:45:57.391Z,66.22
2019-02-24T22:48:28.300Z,66.51
2019-02-24T22:50:59.166Z,66.58
2019-02-24T22:53:30.000Z,66.71
2019-02-24T22:56:00.887Z,67.16
2019-02-24T22:58:31.676Z,66.84
2019-02-24T23:01:15.217Z,67.08
2019-02-24T23:03:48.104Z,67.41
2019-02-24T23:06:19.079Z,67.17
2019-02-24T23:08:49.978Z,67.01
2019-02-24T23:11:21.071Z,66.61
2019-02-24T23:13:51.870Z,67.11
2019-02-24T23:16:22.856Z,66.47
2019-02-24T23:18:53.746Z,67.18
2019-02-24T23:21:24.621Z,66.63
2019-02-24T23:23:55.396Z,66.92
2019-02-24T23:26:26.290Z,67.07
2019-02-24T23:28:57.070Z,66.49
2019-02-24T23:31:28.117Z,66.26
2019-02-24T23:33:58.965Z,66.88
2019-02-24T23:36:30.332Z,67.15
2019-02-24T23:39:01.241Z,66.88
2019-02-24T23:41:33.581Z,67.34
2019-02-24T23:44:04.464Z,67.55
2019-02-24T23:46:35.447Z,67.99
2019-02-24T23:49:06.321Z,67.29
2019-02-24T23:51:37.395Z,67.90
2019-02-24T23:54:08.199Z,67.76
2019-02-24T23:56:39.807Z,66.65
2019-02-24T23:59:10.891Z,67.72
